createdAt,value
2018-11-03T00:00:49.644Z,8.70
2018-11-03T00:03:17.753Z,8.70
2018-11-03T00:05:46.054Z,8.70
2018-11-03T00:08:14.253Z,8.70
2018-11-03T00:10:42.355Z,8.70
2018-11-03T00:13:10.641Z,8.70
2018-11-03T00:15:39.195Z,8.70
2018-11-03T00:18:08.114Z,8.70
2018-11-03T00:20:38.033Z,8.70
2018-11-03T00:23:06.257Z,8.70
2018-11-03T00:25:34.573Z,8.70
2018-11-03T00:28:02.971Z,8.80
2018-11-03T00:30:31.291Z,8.80
2018-11-03T00:32:59.418Z,8.80
2018-11-03T00:35:27.830Z,8.90
2018-11-03T00:37:56.365Z,8.90
2018-11-03T00:40:25.457Z,8.90
2018-11-03T00:42:53.795Z,8.90
2018-11-03T00:45:23.013Z,8.90
2018-11-03T00:47:52.234Z,8.90
2018-11-03T00:50:20.321Z,8.90
2018-11-03T00:52:48.645Z,8.90
2018-11-03T00:55:16.889Z,8.90
2018-11-03T00:57:45.193Z,8.90
2018-11-03T01:00:15.887Z,8.90
2018-11-03T01:02:45.090Z,8.90
2018-11-03T01:05:13.499Z,8.90
2018-11-03T01:07:42.484Z,8.90
2018-11-03T01:10:10.751Z,8.90
2018-11-03T01:12:39.445Z,8.90
2018-11-03T01:15:08.717Z,8.90
2018-11-03T01:17:37.058Z,8.90
2018-11-03T01:20:05.769Z,8.90
2018-11-03T01:22:33.881Z,8.90
2018-11-03T01:25:02.123Z,8.90
2018-11-03T01:27:30.333Z,8.90
2018-11-03T01:29:58.620Z,8.90
2018-11-03T01:32:26.838Z,8.90
2018-11-03T01:34:54.933Z,8.90
2018-11-03T01:37:23.967Z,8.90
2018-11-03T01:39:52.117Z,8.90
2018-11-03T01:42:20.272Z,8.90
2018-11-03T01:44:48.421Z,8.90
2018-11-03T01:47:16.600Z,8.90
2018-11-03T01:49:44.747Z,8.80
2018-11-03T01:52:12.886Z,8.80
2018-11-03T01:54:41.961Z,8.80
2018-11-03T01:57:11.446Z,8.80
2018-11-03T01:59:40.432Z,8.70
2018-11-03T02:02:08.596Z,8.70
2018-11-03T02:04:36.932Z,8.70
2018-11-03T02:07:05.133Z,8.70
2018-11-03T02:09:33.328Z,8.70
2018-11-03T02:12:01.574Z,8.70
2018-11-03T02:14:29.688Z,8.70
2018-11-03T02:16:57.976Z,8.70
2018-11-03T02:19:28.782Z,8.70
2018-11-03T02:21:57.161Z,8.70
2018-11-03T02:24:25.801Z,8.70
2018-11-03T02:26:54.255Z,8.70
2018-11-03T02:29:23.490Z,8.70
2018-11-03T02:31:51.619Z,8.70
2018-11-03T02:34:19.727Z,8.70
2018-11-03T02:36:47.983Z,8.70
2018-11-03T02:39:16.083Z,8.70
2018-11-03T02:41:44.401Z,8.70
2018-11-03T02:44:12.527Z,8.70
2018-11-03T02:46:41.659Z,8.70
2018-11-03T02:49:09.768Z,8.70
2018-11-03T02:51:37.981Z,8.70
2018-11-03T02:54:06.489Z,8.70
2018-11-03T02:56:34.612Z,8.70
2018-11-03T02:59:02.887Z,8.70
2018-11-03T03:01:31.013Z,8.70
2018-11-03T03:03:59.173Z,8.70
2018-11-03T03:06:27.357Z,8.70
2018-11-03T03:08:56.054Z,8.70
2018-11-03T03:11:24.272Z,8.80
2018-11-03T03:13:52.413Z,8.80
2018-11-03T03:16:20.546Z,8.70
2018-11-03T03:18:48.838Z,8.80
2018-11-03T03:21:16.953Z,8.80
2018-11-03T03:23:45.077Z,8.80
2018-11-03T03:26:13.233Z,8.80
2018-11-03T03:28:41.389Z,8.80
2018-11-03T03:31:09.610Z,8.80
2018-11-03T03:33:37.908Z,8.80
2018-11-03T03:36:06.133Z,8.80
2018-11-03T03:38:34.350Z,8.80
2018-11-03T03:41:02.538Z,8.80
2018-11-03T03:43:30.647Z,8.70
2018-11-03T03:45:59.346Z,8.80
2018-11-03T03:48:27.473Z,8.70
2018-11-03T03:50:55.692Z,8.70
2018-11-03T03:53:23.928Z,8.70
2018-11-03T03:55:52.116Z,8.70
2018-11-03T03:58:20.369Z,8.70
2018-11-03T04:00:48.554Z,8.70
2018-11-03T04:03:16.628Z,8.70
2018-11-03T04:05:45.001Z,8.70
2018-11-03T04:08:13.317Z,8.70
2018-11-03T04:10:41.369Z,8.70
2018-11-03T04:13:09.719Z,8.70
2018-11-03T04:15:37.826Z,8.70
2018-11-03T04:18:05.937Z,8.70
2018-11-03T04:20:34.153Z,8.70
2018-11-03T04:23:02.324Z,8.70
2018-11-03T04:25:30.468Z,8.70
2018-11-03T04:27:58.576Z,8.70
2018-11-03T04:30:26.810Z,8.70
2018-11-03T04:32:55.066Z,8.70
2018-11-03T04:35:23.308Z,8.70
2018-11-03T04:37:51.381Z,8.80
2018-11-03T04:40:19.528Z,8.70
2018-11-03T04:42:48.576Z,8.80
2018-11-03T04:45:16.826Z,8.70
2018-11-03T04:47:44.922Z,8.80
2018-11-03T04:50:13.245Z,8.80
2018-11-03T04:52:41.400Z,8.80
2018-11-03T04:55:10.019Z,8.80
2018-11-03T04:57:38.089Z,8.80
2018-11-03T05:00:06.461Z,8.80
2018-11-03T05:02:34.790Z,8.90
2018-11-03T05:05:02.916Z,8.90
2018-11-03T05:07:31.253Z,8.80
2018-11-03T05:09:59.708Z,8.90
2018-11-03T05:12:28.067Z,8.80
2018-11-03T05:14:57.098Z,8.90
2018-11-03T05:17:25.199Z,8.90
2018-11-03T05:19:53.652Z,8.90
2018-11-03T05:22:21.753Z,8.90
2018-11-03T05:24:49.845Z,8.80
2018-11-03T05:27:17.969Z,8.90
2018-11-03T05:29:46.205Z,8.90
2018-11-03T05:32:14.468Z,8.80
2018-11-03T05:34:42.923Z,8.80
2018-11-03T05:37:11.135Z,8.80
2018-11-03T05:39:39.209Z,8.80
2018-11-03T05:42:07.357Z,8.80
2018-11-03T05:44:35.633Z,8.80
2018-11-03T05:47:03.946Z,8.90
2018-11-03T05:49:32.819Z,8.90
2018-11-03T05:52:01.498Z,8.90
2018-11-03T05:54:29.641Z,8.90
2018-11-03T05:56:57.769Z,8.90
2018-11-03T05:59:25.925Z,8.90
2018-11-03T06:01:54.173Z,8.90
2018-11-03T06:04:22.413Z,8.90
2018-11-03T06:06:50.499Z,8.90
2018-11-03T06:09:18.621Z,8.90
2018-11-03T06:11:46.729Z,8.90
2018-11-03T06:14:14.897Z,8.90
2018-11-03T06:16:43.222Z,8.90
2018-11-03T06:19:11.469Z,8.90
2018-11-03T06:21:39.666Z,8.90
2018-11-03T06:24:08.025Z,9.00
2018-11-03T06:26:36.229Z,8.90
2018-11-03T06:29:04.429Z,8.80
2018-11-03T06:31:32.765Z,8.50
2018-11-03T06:34:00.961Z,8.30
2018-11-03T06:36:29.198Z,8.10
2018-11-03T06:38:57.326Z,8.10
2018-11-03T06:41:25.597Z,8.10
2018-11-03T06:43:53.831Z,8.00
2018-11-03T06:46:22.318Z,7.90
2018-11-03T06:48:51.168Z,7.80
2018-11-03T06:51:19.298Z,7.90
2018-11-03T06:53:47.509Z,7.80
2018-11-03T06:56:15.763Z,7.90
2018-11-03T06:58:43.874Z,7.80
2018-11-03T07:01:12.057Z,7.70
2018-11-03T07:03:40.792Z,7.80
2018-11-03T07:06:09.943Z,7.80
2018-11-03T07:08:39.029Z,7.80
2018-11-03T07:11:07.173Z,7.70
2018-11-03T07:13:35.362Z,7.70
2018-11-03T07:16:03.980Z,7.70
2018-11-03T07:18:32.324Z,7.60
2018-11-03T07:21:00.509Z,7.60
2018-11-03T07:23:28.669Z,7.60
2018-11-03T07:26:27.681Z,7.60
2018-11-03T07:28:56.591Z,7.70
2018-11-03T07:31:24.905Z,7.70
2018-11-03T07:33:53.066Z,7.60
2018-11-03T07:36:22.008Z,7.60
2018-11-03T07:38:50.924Z,7.70
2018-11-03T07:41:19.205Z,7.60
2018-11-03T07:43:47.453Z,7.60
2018-11-03T07:46:15.666Z,7.70
2018-11-03T07:48:44.117Z,7.50
2018-11-03T07:51:12.151Z,7.60
2018-11-03T07:53:40.435Z,7.50
2018-11-03T07:56:08.830Z,7.60
2018-11-03T07:58:37.615Z,7.60
2018-11-03T08:01:05.739Z,7.60
2018-11-03T08:03:33.931Z,7.60
2018-11-03T08:06:02.723Z,7.60
2018-11-03T08:08:30.956Z,7.70
2018-11-03T08:10:59.460Z,7.70
2018-11-03T08:13:27.527Z,7.80
2018-11-03T08:15:55.848Z,7.80
2018-11-03T08:18:24.141Z,7.70
2018-11-03T08:20:52.304Z,7.70
2018-11-03T08:23:20.386Z,7.70
2018-11-03T08:25:48.600Z,7.80
2018-11-03T08:28:17.337Z,7.80
2018-11-03T08:30:45.455Z,7.80
2018-11-03T08:33:13.689Z,7.80
2018-11-03T08:35:42.026Z,7.80
2018-11-03T08:38:10.346Z,7.70
2018-11-03T08:40:39.110Z,7.80
2018-11-03T08:43:07.368Z,7.80
2018-11-03T08:45:35.553Z,7.70
2018-11-03T08:48:04.449Z,7.80
2018-11-03T08:50:32.618Z,7.80
2018-11-03T08:53:00.846Z,7.80
2018-11-03T08:55:29.589Z,7.90
2018-11-03T08:57:57.759Z,7.90
2018-11-03T09:00:25.938Z,7.70
2018-11-03T09:02:54.654Z,7.70
2018-11-03T09:05:23.030Z,7.70
2018-11-03T09:07:51.131Z,7.70
2018-11-03T09:10:20.009Z,7.60
2018-11-03T09:12:48.318Z,7.70
2018-11-03T09:15:16.670Z,7.70
2018-11-03T09:17:45.813Z,7.60
2018-11-03T09:20:14.293Z,7.50
2018-11-03T09:22:42.669Z,7.60
2018-11-03T09:25:13.030Z,7.50
2018-11-03T09:27:42.207Z,7.50
2018-11-03T09:30:11.795Z,7.50
2018-11-03T09:32:41.120Z,7.50
2018-11-03T09:35:10.150Z,7.50
2018-11-03T09:37:38.253Z,7.50
2018-11-03T09:40:07.453Z,7.50
2018-11-03T09:42:35.717Z,7.60
2018-11-03T09:45:04.018Z,7.60
2018-11-03T09:47:32.281Z,7.60
2018-11-03T09:50:00.356Z,7.70
2018-11-03T09:52:28.487Z,7.70
2018-11-03T09:54:56.620Z,7.80
2018-11-03T09:57:24.792Z,7.90
2018-11-03T09:59:52.944Z,7.90
2018-11-03T10:02:21.339Z,7.90
2018-11-03T10:04:49.509Z,8.00
2018-11-03T10:07:18.467Z,8.10
2018-11-03T10:09:46.650Z,8.00
2018-11-03T10:12:14.950Z,8.10
2018-11-03T10:14:43.561Z,8.10
2018-11-03T10:17:11.657Z,8.20
2018-11-03T10:19:39.790Z,8.00
2018-11-03T10:22:08.109Z,8.00
2018-11-03T10:24:37.242Z,7.90
2018-11-03T10:27:06.251Z,8.10
2018-11-03T10:29:34.483Z,8.10
2018-11-03T10:32:02.709Z,8.20
2018-11-03T10:34:31.028Z,8.20
2018-11-03T10:36:59.157Z,8.20
2018-11-03T10:39:27.363Z,8.20
2018-11-03T10:41:55.487Z,8.30
2018-11-03T10:44:23.851Z,8.40
2018-11-03T10:46:51.992Z,8.30
2018-11-03T10:49:20.296Z,8.30
2018-11-03T10:51:48.534Z,8.40
2018-11-03T10:54:17.287Z,8.30
2018-11-03T10:56:45.442Z,8.30
2018-11-03T10:59:14.092Z,8.40
2018-11-03T11:01:47.557Z,8.40
2018-11-03T11:04:20.985Z,8.40
2018-11-03T11:06:55.337Z,8.40
2018-11-03T11:09:35.558Z,8.50
2018-11-03T11:12:09.511Z,8.50
2018-11-03T11:14:37.697Z,8.50
2018-11-03T11:17:06.067Z,8.60
2018-11-03T11:19:34.156Z,8.60
2018-11-03T11:22:02.390Z,8.60
2018-11-03T11:24:30.667Z,8.60
2018-11-03T11:26:59.005Z,8.60
2018-11-03T11:29:27.178Z,8.60
2018-11-03T11:31:55.681Z,8.60
2018-11-03T11:34:23.859Z,8.60
2018-11-03T11:36:52.197Z,8.70
2018-11-03T11:39:20.332Z,8.70
2018-11-03T11:41:48.501Z,8.70
2018-11-03T11:44:17.446Z,8.60
2018-11-03T11:46:45.554Z,8.70
2018-11-03T11:49:13.741Z,8.60
2018-11-03T11:51:42.161Z,8.70
2018-11-03T11:54:10.292Z,8.80
2018-11-03T11:56:38.396Z,8.80
2018-11-03T11:59:07.033Z,8.80
2018-11-03T12:01:35.214Z,8.70
2018-11-03T12:04:03.327Z,8.80
2018-11-03T12:06:31.520Z,8.70
2018-11-03T12:08:59.737Z,8.80
2018-11-03T12:11:27.877Z,8.80
2018-11-03T12:13:56.257Z,8.80
2018-11-03T12:16:24.401Z,8.80
2018-11-03T12:18:52.505Z,8.70
2018-11-03T12:21:20.630Z,8.90
2018-11-03T12:23:48.841Z,8.90
2018-11-03T12:26:17.034Z,8.90
2018-11-03T12:28:45.135Z,9.00
2018-11-03T12:31:14.216Z,9.00
2018-11-03T12:33:42.526Z,8.90
2018-11-03T12:36:10.729Z,9.00
2018-11-03T12:38:40.078Z,9.00
2018-11-03T12:41:08.342Z,9.00
2018-11-03T12:43:36.476Z,9.10
2018-11-03T12:46:04.796Z,9.00
2018-11-03T12:48:33.037Z,9.00
2018-11-03T12:51:01.125Z,8.90
2018-11-03T12:53:29.317Z,9.00
2018-11-03T12:55:57.693Z,8.90
2018-11-03T12:58:25.855Z,9.00
2018-11-03T13:00:54.010Z,9.10
2018-11-03T13:03:22.254Z,9.10
2018-11-03T13:05:50.429Z,9.10
2018-11-03T13:08:18.544Z,9.10
2018-11-03T13:10:46.730Z,9.10
2018-11-03T13:13:14.876Z,9.20
2018-11-03T13:15:43.102Z,9.20
2018-11-03T13:18:11.289Z,9.10
2018-11-03T13:20:39.464Z,9.10
2018-11-03T13:23:08.433Z,9.10
2018-11-03T13:25:36.665Z,9.00
2018-11-03T13:28:05.278Z,9.00
2018-11-03T13:30:33.353Z,8.90
2018-11-03T13:33:01.593Z,8.80
2018-11-03T13:35:29.943Z,8.80
2018-11-03T13:37:58.102Z,8.80
2018-11-03T13:40:26.328Z,8.70
2018-11-03T13:42:55.367Z,8.70
2018-11-03T13:45:24.555Z,8.60
2018-11-03T13:47:52.880Z,8.60
2018-11-03T13:50:20.929Z,8.60
2018-11-03T13:52:49.102Z,8.50
2018-11-03T13:55:17.289Z,8.40
2018-11-03T13:57:46.349Z,8.30
2018-11-03T14:00:17.249Z,8.00
2018-11-03T14:02:46.307Z,7.90
2018-11-03T14:05:14.368Z,7.80
2018-11-03T14:07:42.639Z,7.50
2018-11-03T14:10:12.837Z,7.30
2018-11-03T14:12:41.267Z,7.40
2018-11-03T14:15:11.014Z,7.50
2018-11-03T14:17:39.880Z,7.40
2018-11-03T14:20:09.180Z,7.20
2018-11-03T14:22:37.428Z,7.10
2018-11-03T14:25:06.622Z,7.10
2018-11-03T14:27:34.832Z,6.90
2018-11-03T14:30:03.038Z,6.60
2018-11-03T14:32:31.349Z,6.70
2018-11-03T14:35:00.169Z,6.50
2018-11-03T14:37:28.474Z,6.40
2018-11-03T14:39:56.826Z,6.30
2018-11-03T14:42:25.090Z,6.40
2018-11-03T14:44:53.382Z,6.40
2018-11-03T14:47:21.385Z,6.50
2018-11-03T14:49:49.653Z,6.40
2018-11-03T14:52:17.861Z,6.20
2018-11-03T14:54:49.652Z,6.10
2018-11-03T14:57:18.148Z,6.10
2018-11-03T14:59:46.154Z,6.00
2018-11-03T15:02:14.878Z,6.00
2018-11-03T15:04:43.196Z,5.90
2018-11-03T15:07:11.273Z,5.90
2018-11-03T15:09:39.388Z,5.90
2018-11-03T15:12:07.623Z,5.80
2018-11-03T15:14:35.695Z,5.70
2018-11-03T15:17:05.567Z,5.70
2018-11-03T15:19:34.191Z,5.70
2018-11-03T15:22:02.334Z,5.60
2018-11-03T15:24:30.344Z,5.60
2018-11-03T15:26:58.776Z,5.50
2018-11-03T15:29:26.916Z,5.50
2018-11-03T15:31:55.681Z,5.40
2018-11-03T15:34:24.458Z,5.40
2018-11-03T15:36:52.805Z,5.30
2018-11-03T15:39:21.169Z,5.20
2018-11-03T15:41:49.365Z,5.10
2018-11-03T15:44:18.325Z,5.00
2018-11-03T15:46:46.455Z,5.00
2018-11-03T15:49:15.201Z,5.00
2018-11-03T15:51:45.074Z,5.00
2018-11-03T15:54:13.165Z,4.90
2018-11-03T15:56:41.294Z,4.90
2018-11-03T15:59:09.452Z,4.90
2018-11-03T16:01:37.706Z,4.90
2018-11-03T16:04:07.550Z,4.80
2018-11-03T16:06:35.918Z,4.80
2018-11-03T16:09:04.845Z,4.70
2018-11-03T16:11:34.347Z,4.70
2018-11-03T16:14:02.809Z,4.70
2018-11-03T16:16:31.411Z,4.70
2018-11-03T16:18:59.618Z,4.70
2018-11-03T16:21:29.220Z,4.70
2018-11-03T16:23:57.404Z,4.80
2018-11-03T16:26:26.921Z,4.90
2018-11-03T16:28:55.607Z,5.00
2018-11-03T16:31:23.757Z,5.00
2018-11-03T16:33:52.306Z,5.00
2018-11-03T16:36:20.419Z,5.10
2018-11-03T16:38:49.570Z,5.10
2018-11-03T16:41:17.783Z,5.20
2018-11-03T16:43:46.206Z,5.20
2018-11-03T16:46:14.289Z,5.30
2018-11-03T16:48:42.697Z,5.30
2018-11-03T16:51:10.936Z,5.40
2018-11-03T16:53:39.039Z,5.40
2018-11-03T16:56:07.270Z,5.40
2018-11-03T16:58:35.501Z,5.50
2018-11-03T17:01:03.613Z,5.40
2018-11-03T17:03:31.854Z,5.50
2018-11-03T17:06:00.922Z,5.50
2018-11-03T17:08:29.065Z,5.40
2018-11-03T17:10:57.832Z,5.50
2018-11-03T17:13:26.081Z,5.40
2018-11-03T17:15:54.101Z,5.40
2018-11-03T17:18:22.266Z,5.40
2018-11-03T17:20:50.431Z,5.40
2018-11-03T17:23:19.512Z,5.30
2018-11-03T17:25:48.033Z,5.30
2018-11-03T17:28:16.871Z,5.30
2018-11-03T17:30:45.059Z,5.30
2018-11-03T17:33:13.385Z,5.30
2018-11-03T17:35:41.495Z,5.30
2018-11-03T17:38:10.457Z,5.20
2018-11-03T17:40:38.660Z,5.20
2018-11-03T17:43:06.745Z,5.20
2018-11-03T17:45:34.830Z,5.10
2018-11-03T17:48:03.750Z,5.10
2018-11-03T17:50:32.113Z,5.10
2018-11-03T17:53:00.221Z,5.10
2018-11-03T17:55:28.336Z,5.10
2018-11-03T17:57:56.959Z,5.10
2018-11-03T18:00:26.099Z,5.00
2018-11-03T18:02:54.105Z,5.00
2018-11-03T18:05:22.357Z,5.00
2018-11-03T18:07:50.568Z,4.90
2018-11-03T18:10:18.867Z,5.00
2018-11-03T18:12:47.105Z,5.00
2018-11-03T18:15:15.397Z,4.90
2018-11-03T18:17:43.636Z,4.90
2018-11-03T18:20:12.054Z,4.90
2018-11-03T18:22:40.529Z,4.80
2018-11-03T18:25:08.976Z,4.80
2018-11-03T18:27:37.385Z,4.80
2018-11-03T18:30:06.241Z,4.80
2018-11-03T18:32:34.353Z,4.90
2018-11-03T18:35:03.041Z,5.00
2018-11-03T18:37:31.636Z,5.00
2018-11-03T18:40:00.452Z,5.10
2018-11-03T18:42:28.514Z,5.10
2018-11-03T18:44:57.501Z,5.10
2018-11-03T18:47:25.622Z,5.20
2018-11-03T18:49:53.772Z,5.20
2018-11-03T18:52:22.049Z,5.20
2018-11-03T18:54:50.333Z,5.20
2018-11-03T18:57:18.442Z,5.20
2018-11-03T18:59:46.679Z,5.20
2018-11-03T19:02:14.910Z,5.20
2018-11-03T19:04:43.053Z,5.20
2018-11-03T19:07:11.261Z,5.20
2018-11-03T19:09:39.606Z,5.10
2018-11-03T19:12:07.901Z,5.10
2018-11-03T19:14:36.590Z,5.00
2018-11-03T19:17:05.150Z,5.00
2018-11-03T19:19:34.266Z,5.00
2018-11-03T19:22:02.507Z,5.00
2018-11-03T19:24:30.679Z,5.00
2018-11-03T19:26:59.545Z,4.80
2018-11-03T19:29:28.436Z,4.80
2018-11-03T19:31:56.706Z,4.80
2018-11-03T19:34:24.986Z,4.80
2018-11-03T19:36:53.375Z,4.80
2018-11-03T19:39:21.706Z,4.80
2018-11-03T19:41:49.866Z,4.80
2018-11-03T19:44:17.924Z,4.70
2018-11-03T19:46:47.131Z,4.70
2018-11-03T19:49:15.945Z,4.70
2018-11-03T19:51:44.165Z,4.70
2018-11-03T19:54:12.442Z,4.60
2018-11-03T19:56:41.569Z,4.70
2018-11-03T19:59:10.587Z,4.60
2018-11-03T20:01:38.774Z,4.60
2018-11-03T20:04:06.884Z,4.60
2018-11-03T20:06:35.044Z,4.60
2018-11-03T20:09:03.391Z,4.60
2018-11-03T20:11:32.557Z,4.60
2018-11-03T20:14:00.719Z,4.60
2018-11-03T20:16:29.067Z,4.60
2018-11-03T20:18:57.213Z,4.60
2018-11-03T20:21:25.496Z,4.60
2018-11-03T20:23:53.658Z,4.60
2018-11-03T20:26:21.866Z,4.60
2018-11-03T20:28:50.979Z,4.70
2018-11-03T20:31:19.086Z,4.60
2018-11-03T20:33:47.386Z,4.60
2018-11-03T20:36:15.501Z,4.60
2018-11-03T20:38:43.590Z,4.60
2018-11-03T20:41:11.725Z,4.60
2018-11-03T20:43:39.828Z,4.60
2018-11-03T20:46:08.143Z,4.60
2018-11-03T20:48:36.271Z,4.60
2018-11-03T20:51:10.023Z,4.60
2018-11-03T20:53:38.525Z,4.60
2018-11-03T20:56:07.061Z,4.60
2018-11-03T20:58:35.280Z,4.60
2018-11-03T21:01:05.933Z,4.60
2018-11-03T21:03:36.180Z,4.60
2018-11-03T21:06:04.271Z,4.60
2018-11-03T21:08:33.222Z,4.50
2018-11-03T21:11:02.174Z,4.60
2018-11-03T21:13:31.344Z,4.60
2018-11-03T21:15:59.509Z,4.60
2018-11-03T21:18:28.049Z,4.60
2018-11-03T21:20:56.410Z,4.60
2018-11-03T21:23:24.794Z,4.70
2018-11-03T21:25:53.008Z,4.70
2018-11-03T21:28:21.140Z,4.70
2018-11-03T21:30:50.019Z,4.80
2018-11-03T21:33:18.250Z,4.80
2018-11-03T21:35:47.320Z,4.80
2018-11-03T21:38:16.504Z,4.80
2018-11-03T21:40:44.891Z,4.80
2018-11-03T21:43:13.105Z,4.90
2018-11-03T21:45:42.674Z,4.90
2018-11-03T21:48:10.910Z,5.00
2018-11-03T21:50:39.192Z,5.00
2018-11-03T21:53:07.313Z,5.00
2018-11-03T21:55:35.425Z,5.00
2018-11-03T21:58:06.146Z,5.10
2018-11-03T22:00:34.240Z,5.10
2018-11-03T22:03:02.389Z,5.10
2018-11-03T22:05:30.692Z,5.10
2018-11-03T22:08:00.579Z,5.10
2018-11-03T22:10:28.765Z,5.10
2018-11-03T22:12:56.958Z,5.10
2018-11-03T22:15:25.091Z,5.10
2018-11-03T22:17:53.198Z,5.20
2018-11-03T22:20:21.398Z,5.20
2018-11-03T22:22:49.511Z,5.30
2018-11-03T22:25:17.729Z,5.30
2018-11-03T22:27:46.633Z,5.30
2018-11-03T22:30:14.989Z,5.20
2018-11-03T22:32:43.086Z,5.30
2018-11-03T22:35:11.895Z,5.30
2018-11-03T22:37:40.066Z,5.30
2018-11-03T22:40:08.671Z,5.30
2018-11-03T22:42:36.881Z,5.40
2018-11-03T22:45:04.958Z,5.30
2018-11-03T22:47:33.512Z,5.30
2018-11-03T22:50:01.936Z,5.40
2018-11-03T22:52:30.460Z,5.30
2018-11-03T22:54:58.807Z,5.40
2018-11-03T22:57:27.818Z,5.40
2018-11-03T22:59:56.051Z,5.30
2018-11-03T23:02:26.074Z,5.30
2018-11-03T23:04:54.446Z,5.40
2018-11-03T23:07:22.553Z,5.40
2018-11-03T23:09:51.902Z,5.40
2018-11-03T23:12:20.030Z,5.40
2018-11-03T23:14:48.133Z,5.40
2018-11-03T23:17:16.237Z,5.50
2018-11-03T23:19:44.373Z,5.50
2018-11-03T23:22:12.637Z,5.50
2018-11-03T23:24:40.874Z,5.50
2018-11-03T23:27:08.988Z,5.50
2018-11-03T23:29:37.124Z,5.60
2018-11-03T23:32:05.627Z,5.60
2018-11-03T23:34:33.933Z,5.60
2018-11-03T23:37:02.041Z,5.60
2018-11-03T23:39:30.159Z,5.60
2018-11-03T23:41:59.093Z,5.70
2018-11-03T23:44:27.334Z,5.70
2018-11-03T23:46:55.521Z,5.70
2018-11-03T23:49:23.813Z,5.70
2018-11-03T23:51:52.762Z,5.70
2018-11-03T23:54:20.990Z,5.70
2018-11-03T23:56:50.039Z,5.70
2018-11-03T23:59:18.183Z,5.70
